If you wish to contribute or participate in the discussions about articles you are invited to join SKYbrary as a registered user

 Actions

Karlstad

From SKYbrary Wiki

ESOK
Airport
ICAO: ESOK
Summary
Name Karlstad
Region Europe
Territory Sweden SE.gif
Location Karlstad
Serving
Coordinates 59° 26' 42.47" N, 13° 20' 16.91" E
Runways
Designator Length Width Surface ROPS
3/21 2516 m8,254.593 ft <br /> 45 m147.638 ft <br /> ASP yes/yes
03L/21R 561 m1,840.551 ft <br /> 52 m170.604 ft <br /> GRE /


METAR
Observation ESOK 131750Z AUTO 24010KT 200V280 9999 NCD 18/07 Q1016
Station Karlstad
Date/Time 13 June 2021 17:50:00
Wind direction 240°
Wind speed 10 kts
Lowest cloud amount no clouds detected
Temperature 18°C
Dew point 7°C
Humidity 48%
QNH 1016 hPa
Weather condition n/a


Karlstad Airport

ICAO: ESOK IATA: KSD

Description

Karlstad Airport is situated 16 km8.639 nm <br />16,000 m <br />52,493.438 ft <br /> from Karlstad.

Climatology

Humid Continental climate (Köppen climate classification Dfb) - Variable weather patterns and a large seasonal temperature variance. Summers are often warm and humid with frequent thunderstorms and winters can be very cold with frequent snowfall and persistent snow cover.

Maps

Terrain

Loading map...

Airport Layout

Loading map...


Accidents & Serious Incidents at or in vicinity of ESOK

None on SKYbrary